sensor_id;sensor_type;location;lat;lon;timestamp;temperature;humidity
39023;DHT22;25908;51.984;5.928;2022-11-15T00:00:26;9.50;99.90
39023;DHT22;25908;51.984;5.928;2022-11-15T00:02:55;9.50;99.90
39023;DHT22;25908;51.984;5.928;2022-11-15T00:05:21;9.50;99.90
39023;DHT22;25908;51.984;5.928;2022-11-15T00:07:47;9.50;99.90
39023;DHT22;25908;51.984;5.928;2022-11-15T00:10:12;9.50;99.90
39023;DHT22;25908;51.984;5.928;2022-11-15T00:12:38;9.60;99.90
39023;DHT22;25908;51.984;5.928;2022-11-15T00:15:04;9.60;99.90
39023;DHT22;25908;51.984;5.928;2022-11-15T00:17:30;9.60;99.90
39023;DHT22;25908;51.984;5.928;2022-11-15T00:19:55;9.60;99.90
39023;DHT22;25908;51.984;5.928;2022-11-15T00:22:21;9.60;99.90
39023;DHT22;25908;51.984;5.928;2022-11-15T00:24:46;9.60;99.90
39023;DHT22;25908;51.984;5.928;2022-11-15T00:27:12;9.60;99.90
39023;DHT22;25908;51.984;5.928;2022-11-15T00:29:38;9.60;99.90
39023;DHT22;25908;51.984;5.928;2022-11-15T00:32:04;9.60;99.90
39023;DHT22;25908;51.984;5.928;2022-11-15T00:34:30;9.60;99.90
39023;DHT22;25908;51.984;5.928;2022-11-15T00:36:56;9.50;99.90
39023;DHT22;25908;51.984;5.928;2022-11-15T00:39:21;9.50;99.90
39023;DHT22;25908;51.984;5.928;2022-11-15T00:41:47;9.50;99.90
39023;DHT22;25908;51.984;5.928;2022-11-15T00:44:12;9.50;99.90
39023;DHT22;25908;51.984;5.928;2022-11-15T00:46:38;9.50;99.90
39023;DHT22;25908;51.984;5.928;2022-11-15T00:49:04;9.60;99.90
39023;DHT22;25908;51.984;5.928;2022-11-15T00:51:29;9.60;99.90
39023;DHT22;25908;51.984;5.928;2022-11-15T00:53:55;9.60;99.90
39023;DHT22;25908;51.984;5.928;2022-11-15T00:56:21;9.60;99.90
39023;DHT22;25908;51.984;5.928;2022-11-15T00:58:46;9.60;99.90
39023;DHT22;25908;51.984;5.928;2022-11-15T01:01:13;9.60;99.90
39023;DHT22;25908;51.984;5.928;2022-11-15T01:03:40;9.60;99.90
39023;DHT22;25908;51.984;5.928;2022-11-15T01:06:07;9.60;99.90
39023;DHT22;25908;51.984;5.928;2022-11-15T01:08:33;9.60;99.90
39023;DHT22;25908;51.984;5.928;2022-11-15T01:11:10;9.60;99.90
39023;DHT22;25908;51.984;5.928;2022-11-15T01:13:38;9.60;99.90
39023;DHT22;25908;51.984;5.928;2022-11-15T01:16:14;9.60;99.90
39023;DHT22;25908;51.984;5.928;2022-11-15T01:18:40;9.60;99.90
39023;DHT22;25908;51.984;5.928;2022-11-15T01:21:17;9.60;99.90
39023;DHT22;25908;51.984;5.928;2022-11-15T01:23:43;9.60;99.90
39023;DHT22;25908;51.984;5.928;2022-11-15T01:26:11;9.60;99.90
39023;DHT22;25908;51.984;5.928;2022-11-15T01:28:39;9.70;99.90
39023;DHT22;25908;51.984;5.928;2022-11-15T01:31:08;9.70;99.90
39023;DHT22;25908;51.984;5.928;2022-11-15T01:33:35;9.70;99.90
39023;DHT22;25908;51.984;5.928;2022-11-15T01:36:11;9.70;99.90
39023;DHT22;25908;51.984;5.928;2022-11-15T01:38:37;9.70;99.90
39023;DHT22;25908;51.984;5.928;2022-11-15T01:41:03;9.70;99.90
39023;DHT22;25908;51.984;5.928;2022-11-15T01:43:39;9.70;99.90
39023;DHT22;25908;51.984;5.928;2022-11-15T01:48:53;9.80;99.90
39023;DHT22;25908;51.984;5.928;2022-11-15T01:51:21;9.90;99.90
39023;DHT22;25908;51.984;5.928;2022-11-15T01:53:53;9.90;99.90
39023;DHT22;25908;51.984;5.928;2022-11-15T01:56:25;9.90;99.90
39023;DHT22;25908;51.984;5.928;2022-11-15T01:58:53;9.90;99.90
39023;DHT22;25908;51.984;5.928;2022-11-15T02:01:21;9.90;99.90
39023;DHT22;25908;51.984;5.928;2022-11-15T02:03:57;10.00;99.90
39023;DHT22;25908;51.984;5.928;2022-11-15T02:06:24;10.00;99.90
39023;DHT22;25908;51.984;5.928;2022-11-15T02:08:50;10.00;99.90
39023;DHT22;25908;51.984;5.928;2022-11-15T02:11:16;10.00;99.90
39023;DHT22;25908;51.984;5.928;2022-11-15T02:13:42;10.00;99.90
39023;DHT22;25908;51.984;5.928;2022-11-15T02:19:18;10.00;99.90
39023;DHT22;25908;51.984;5.928;2022-11-15T02:25:36;10.10;99.90
39023;DHT22;25908;51.984;5.928;2022-11-15T02:28:10;10.10;99.90
39023;DHT22;25908;51.984;5.928;2022-11-15T02:33:41;10.20;99.90
39023;DHT22;25908;51.984;5.928;2022-11-15T02:36:15;10.20;99.90
39023;DHT22;25908;51.984;5.928;2022-11-15T02:38:59;10.20;99.90
39023;DHT22;25908;51.984;5.928;2022-11-15T02:41:48;10.30;99.90
39023;DHT22;25908;51.984;5.928;2022-11-15T02:44:27;10.30;99.90
39023;DHT22;25908;51.984;5.928;2022-11-15T02:46:58;10.30;99.90
39023;DHT22;25908;51.984;5.928;2022-11-15T02:49:49;10.30;99.90
39023;DHT22;25908;51.984;5.928;2022-11-15T02:52:21;10.30;99.90
39023;DHT22;25908;51.984;5.928;2022-11-15T02:54:57;10.40;99.90
39023;DHT22;25908;51.984;5.928;2022-11-15T02:57:51;10.40;99.90
39023;DHT22;25908;51.984;5.928;2022-11-15T03:00:20;10.30;99.90
39023;DHT22;25908;51.984;5.928;2022-11-15T03:08:02;10.40;99.90
39023;DHT22;25908;51.984;5.928;2022-11-15T03:13:39;10.50;99.90
39023;DHT22;25908;51.984;5.928;2022-11-15T03:16:15;10.50;99.90
39023;DHT22;25908;51.984;5.928;2022-11-15T03:18:49;10.50;99.90
39023;DHT22;25908;51.984;5.928;2022-11-15T03:21:19;10.50;99.90
39023;DHT22;25908;51.984;5.928;2022-11-15T03:23:47;10.50;99.90
39023;DHT22;25908;51.984;5.928;2022-11-15T03:26:15;10.50;99.90
39023;DHT22;25908;51.984;5.928;2022-11-15T03:31:14;10.60;99.90
39023;DHT22;25908;51.984;5.928;2022-11-15T03:34:02;10.70;99.90
39023;DHT22;25908;51.984;5.928;2022-11-15T03:36:30;10.60;99.90
39023;DHT22;25908;51.984;5.928;2022-11-15T03:39:00;10.70;99.90
39023;DHT22;25908;51.984;5.928;2022-11-15T03:41:35;10.70;99.90
39023;DHT22;25908;51.984;5.928;2022-11-15T03:46:39;10.70;99.90
39023;DHT22;25908;51.984;5.928;2022-11-15T03:49:11;10.80;99.90
39023;DHT22;25908;51.984;5.928;2022-11-15T03:51:39;10.80;99.90
39023;DHT22;25908;51.984;5.928;2022-11-15T03:54:05;10.80;99.90
39023;DHT22;25908;51.984;5.928;2022-11-15T03:56:31;10.80;99.90
39023;DHT22;25908;51.984;5.928;2022-11-15T03:58:56;10.80;99.90
39023;DHT22;25908;51.984;5.928;2022-11-15T04:01:22;10.80;99.90
39023;DHT22;25908;51.984;5.928;2022-11-15T04:03:48;10.80;99.90
39023;DHT22;25908;51.984;5.928;2022-11-15T04:06:14;10.80;99.90
39023;DHT22;25908;51.984;5.928;2022-11-15T04:08:39;10.90;99.90
39023;DHT22;25908;51.984;5.928;2022-11-15T04:11:05;10.90;99.90
39023;DHT22;25908;51.984;5.928;2022-11-15T04:13:30;10.90;99.90
39023;DHT22;25908;51.984;5.928;2022-11-15T04:15:56;10.90;99.90
39023;DHT22;25908;51.984;5.928;2022-11-15T04:18:21;10.90;99.90
39023;DHT22;25908;51.984;5.928;2022-11-15T04:20:47;10.90;99.90
39023;DHT22;25908;51.984;5.928;2022-11-15T04:23:31;11.00;99.90
39023;DHT22;25908;51.984;5.928;2022-11-15T04:26:21;11.00;99.90
39023;DHT22;25908;51.984;5.928;2022-11-15T04:28:47;11.10;99.90
39023;DHT22;25908;51.984;5.928;2022-11-15T04:31:32;11.10;99.90
39023;DHT22;25908;51.984;5.928;2022-11-15T04:33:57;11.10;99.90
39023;DHT22;25908;51.984;5.928;2022-11-15T04:36:23;11.20;99.90
39023;DHT22;25908;51.984;5.928;2022-11-15T04:39:07;11.20;99.90
39023;DHT22;25908;51.984;5.928;2022-11-15T04:41:33;11.20;99.90
39023;DHT22;25908;51.984;5.928;2022-11-15T04:43:58;11.20;99.90
39023;DHT22;25908;51.984;5.928;2022-11-15T04:46:25;11.30;99.90
39023;DHT22;25908;51.984;5.928;2022-11-15T04:48:52;11.30;99.90
39023;DHT22;25908;51.984;5.928;2022-11-15T04:51:18;11.30;99.90
39023;DHT22;25908;51.984;5.928;2022-11-15T04:53:44;11.30;99.90
39023;DHT22;25908;51.984;5.928;2022-11-15T04:56:09;11.30;99.90
39023;DHT22;25908;51.984;5.928;2022-11-15T04:58:35;11.40;99.90
39023;DHT22;25908;51.984;5.928;2022-11-15T05:01:08;11.40;99.90
39023;DHT22;25908;51.984;5.928;2022-11-15T05:03:34;11.40;99.90
39023;DHT22;25908;51.984;5.928;2022-11-15T05:06:18;11.40;99.90
39023;DHT22;25908;51.984;5.928;2022-11-15T05:08:44;11.40;99.90
39023;DHT22;25908;51.984;5.928;2022-11-15T05:11:09;11.40;99.90
39023;DHT22;25908;51.984;5.928;2022-11-15T05:13:35;11.40;99.90
39023;DHT22;25908;51.984;5.928;2022-11-15T05:16:00;11.50;99.90
39023;DHT22;25908;51.984;5.928;2022-11-15T05:18:26;11.50;99.90
39023;DHT22;25908;51.984;5.928;2022-11-15T05:20:51;11.50;99.90
39023;DHT22;25908;51.984;5.928;2022-11-15T05:23:17;11.50;99.90
39023;DHT22;25908;51.984;5.928;2022-11-15T05:25:42;11.50;99.90
39023;DHT22;25908;51.984;5.928;2022-11-15T05:28:08;11.50;99.90
39023;DHT22;25908;51.984;5.928;2022-11-15T05:30:33;11.60;99.90
39023;DHT22;25908;51.984;5.928;2022-11-15T05:32:59;11.60;99.90
39023;DHT22;25908;51.984;5.928;2022-11-15T05:35:38;11.60;99.90
39023;DHT22;25908;51.984;5.928;2022-11-15T05:38:05;11.60;99.90
39023;DHT22;25908;51.984;5.928;2022-11-15T05:40:31;11.60;99.90
39023;DHT22;25908;51.984;5.928;2022-11-15T05:43:00;11.60;99.90
39023;DHT22;25908;51.984;5.928;2022-11-15T05:45:28;11.60;99.90
39023;DHT22;25908;51.984;5.928;2022-11-15T05:47:55;11.60;99.90
39023;DHT22;25908;51.984;5.928;2022-11-15T05:50:22;11.60;99.90
39023;DHT22;25908;51.984;5.928;2022-11-15T05:52:48;11.70;99.90
39023;DHT22;25908;51.984;5.928;2022-11-15T05:55:14;11.60;99.90
39023;DHT22;25908;51.984;5.928;2022-11-15T05:57:40;11.70;99.90
39023;DHT22;25908;51.984;5.928;2022-11-15T06:00:06;11.70;99.90
39023;DHT22;25908;51.984;5.928;2022-11-15T06:02:33;11.70;99.90
39023;DHT22;25908;51.984;5.928;2022-11-15T06:04:58;11.70;99.90
39023;DHT22;25908;51.984;5.928;2022-11-15T06:07:24;11.70;99.90
39023;DHT22;25908;51.984;5.928;2022-11-15T06:09:49;11.70;99.90
39023;DHT22;25908;51.984;5.928;2022-11-15T06:12:15;11.70;99.90
39023;DHT22;25908;51.984;5.928;2022-11-15T06:14:41;11.70;99.90
39023;DHT22;25908;51.984;5.928;2022-11-15T06:17:06;11.70;99.90
39023;DHT22;25908;51.984;5.928;2022-11-15T06:19:32;11.70;99.90
39023;DHT22;25908;51.984;5.928;2022-11-15T06:22:01;11.80;99.90
39023;DHT22;25908;51.984;5.928;2022-11-15T06:24:26;11.80;99.90
39023;DHT22;25908;51.984;5.928;2022-11-15T06:26:52;11.80;99.90
39023;DHT22;25908;51.984;5.928;2022-11-15T06:29:17;11.80;99.90
39023;DHT22;25908;51.984;5.928;2022-11-15T06:31:43;11.80;99.90
39023;DHT22;25908;51.984;5.928;2022-11-15T06:34:09;11.80;99.90
39023;DHT22;25908;51.984;5.928;2022-11-15T06:36:35;11.90;99.90
39023;DHT22;25908;51.984;5.928;2022-11-15T06:39:02;11.90;99.90
39023;DHT22;25908;51.984;5.928;2022-11-15T06:41:28;11.90;99.90
39023;DHT22;25908;51.984;5.928;2022-11-15T06:43:54;11.90;99.90
39023;DHT22;25908;51.984;5.928;2022-11-15T06:46:19;11.90;99.90
39023;DHT22;25908;51.984;5.928;2022-11-15T06:48:45;11.90;99.90
39023;DHT22;25908;51.984;5.928;2022-11-15T06:51:10;11.90;99.90
39023;DHT22;25908;51.984;5.928;2022-11-15T06:53:36;11.90;99.90
39023;DHT22;25908;51.984;5.928;2022-11-15T06:56:05;11.90;99.90
39023;DHT22;25908;51.984;5.928;2022-11-15T06:58:31;11.90;99.90
39023;DHT22;25908;51.984;5.928;2022-11-15T07:01:08;11.90;99.90
39023;DHT22;25908;51.984;5.928;2022-11-15T07:03:35;11.90;99.90
39023;DHT22;25908;51.984;5.928;2022-11-15T07:06:02;11.90;99.90
39023;DHT22;25908;51.984;5.928;2022-11-15T07:08:28;11.90;99.90
39023;DHT22;25908;51.984;5.928;2022-11-15T07:10:55;12.00;99.90
39023;DHT22;25908;51.984;5.928;2022-11-15T07:13:26;11.90;99.90
39023;DHT22;25908;51.984;5.928;2022-11-15T07:15:53;11.90;99.90
39023;DHT22;25908;51.984;5.928;2022-11-15T07:18:18;11.90;99.90
39023;DHT22;25908;51.984;5.928;2022-11-15T07:20:44;11.90;99.90
39023;DHT22;25908;51.984;5.928;2022-11-15T07:23:09;11.90;99.90
39023;DHT22;25908;51.984;5.928;2022-11-15T07:25:35;11.90;99.90
39023;DHT22;25908;51.984;5.928;2022-11-15T07:28:01;11.90;99.90
39023;DHT22;25908;51.984;5.928;2022-11-15T07:30:28;11.90;99.90
39023;DHT22;25908;51.984;5.928;2022-11-15T07:32:55;11.90;99.90
39023;DHT22;25908;51.984;5.928;2022-11-15T07:35:20;11.90;99.90
39023;DHT22;25908;51.984;5.928;2022-11-15T07:37:57;11.90;99.90
39023;DHT22;25908;51.984;5.928;2022-11-15T07:40:23;12.00;99.90
39023;DHT22;25908;51.984;5.928;2022-11-15T07:42:49;12.00;99.90
39023;DHT22;25908;51.984;5.928;2022-11-15T07:45:23;12.00;99.90
39023;DHT22;25908;51.984;5.928;2022-11-15T07:47:49;12.00;99.90
39023;DHT22;25908;51.984;5.928;2022-11-15T07:50:19;12.00;99.90
39023;DHT22;25908;51.984;5.928;2022-11-15T07:52:45;12.00;99.90
39023;DHT22;25908;51.984;5.928;2022-11-15T07:55:11;12.00;99.90
39023;DHT22;25908;51.984;5.928;2022-11-15T07:57:36;12.10;99.90
39023;DHT22;25908;51.984;5.928;2022-11-15T08:00:04;12.10;99.90
39023;DHT22;25908;51.984;5.928;2022-11-15T08:02:30;12.10;99.90
39023;DHT22;25908;51.984;5.928;2022-11-15T08:04:55;12.10;99.90
39023;DHT22;25908;51.984;5.928;2022-11-15T08:07:21;12.10;99.90
39023;DHT22;25908;51.984;5.928;2022-11-15T08:09:47;12.10;99.90
39023;DHT22;25908;51.984;5.928;2022-11-15T08:12:12;12.10;99.90
39023;DHT22;25908;51.984;5.928;2022-11-15T08:14:38;12.20;99.90
39023;DHT22;25908;51.984;5.928;2022-11-15T08:17:03;12.20;99.90
39023;DHT22;25908;51.984;5.928;2022-11-15T08:19:29;12.20;99.90
39023;DHT22;25908;51.984;5.928;2022-11-15T08:21:55;12.20;99.90
39023;DHT22;25908;51.984;5.928;2022-11-15T08:24:20;12.20;99.90
39023;DHT22;25908;51.984;5.928;2022-11-15T08:26:46;12.20;99.90
39023;DHT22;25908;51.984;5.928;2022-11-15T08:29:12;12.30;99.90
39023;DHT22;25908;51.984;5.928;2022-11-15T08:31:37;12.30;99.90
39023;DHT22;25908;51.984;5.928;2022-11-15T08:34:04;12.30;99.90
39023;DHT22;25908;51.984;5.928;2022-11-15T08:36:29;12.30;99.90
39023;DHT22;25908;51.984;5.928;2022-11-15T08:38:55;12.30;99.90
39023;DHT22;25908;51.984;5.928;2022-11-15T08:41:31;12.30;99.90
39023;DHT22;25908;51.984;5.928;2022-11-15T08:43:56;12.40;99.90
39023;DHT22;25908;51.984;5.928;2022-11-15T08:46:22;12.40;99.90
39023;DHT22;25908;51.984;5.928;2022-11-15T08:48:49;12.50;99.90
39023;DHT22;25908;51.984;5.928;2022-11-15T08:51:15;12.50;99.90
39023;DHT22;25908;51.984;5.928;2022-11-15T08:53:41;12.60;99.90
39023;DHT22;25908;51.984;5.928;2022-11-15T08:56:08;12.60;99.90
39023;DHT22;25908;51.984;5.928;2022-11-15T08:58:35;12.60;99.90
39023;DHT22;25908;51.984;5.928;2022-11-15T09:01:00;12.70;99.90
39023;DHT22;25908;51.984;5.928;2022-11-15T09:03:26;12.70;99.90
39023;DHT22;25908;51.984;5.928;2022-11-15T09:05:59;12.70;99.90
39023;DHT22;25908;51.984;5.928;2022-11-15T09:08:33;12.70;99.90
39023;DHT22;25908;51.984;5.928;2022-11-15T09:11:03;12.70;99.90
39023;DHT22;25908;51.984;5.928;2022-11-15T09:13:29;12.70;99.90
39023;DHT22;25908;51.984;5.928;2022-11-15T09:15:57;12.70;99.90
39023;DHT22;25908;51.984;5.928;2022-11-15T09:18:24;12.70;99.90
39023;DHT22;25908;51.984;5.928;2022-11-15T09:20:50;12.70;99.90
39023;DHT22;25908;51.984;5.928;2022-11-15T09:23:15;12.70;99.90
39023;DHT22;25908;51.984;5.928;2022-11-15T09:25:41;12.70;99.90
39023;DHT22;25908;51.984;5.928;2022-11-15T09:28:07;12.70;99.90
39023;DHT22;25908;51.984;5.928;2022-11-15T09:30:33;12.70;99.90
39023;DHT22;25908;51.984;5.928;2022-11-15T09:33:05;12.70;99.90
39023;DHT22;25908;51.984;5.928;2022-11-15T09:35:31;12.70;99.90
39023;DHT22;25908;51.984;5.928;2022-11-15T09:37:57;12.70;99.90
39023;DHT22;25908;51.984;5.928;2022-11-15T09:40:24;12.70;99.90
39023;DHT22;25908;51.984;5.928;2022-11-15T09:48:30;12.70;99.90
39023;DHT22;25908;51.984;5.928;2022-11-15T09:50:58;12.70;99.90
39023;DHT22;25908;51.984;5.928;2022-11-15T09:53:54;12.80;99.90
39023;DHT22;25908;51.984;5.928;2022-11-15T09:56:24;12.80;99.90
39023;DHT22;25908;51.984;5.928;2022-11-15T09:59:13;12.80;99.90
39023;DHT22;25908;51.984;5.928;2022-11-15T10:02:14;12.80;99.90
39023;DHT22;25908;51.984;5.928;2022-11-15T10:04:40;13.00;99.90
39023;DHT22;25908;51.984;5.928;2022-11-15T10:07:19;13.20;99.90
39023;DHT22;25908;51.984;5.928;2022-11-15T10:12:27;13.40;99.90
39023;DHT22;25908;51.984;5.928;2022-11-15T10:15:02;13.40;99.90
39023;DHT22;25908;51.984;5.928;2022-11-15T10:22:47;13.60;99.90
39023;DHT22;25908;51.984;5.928;2022-11-15T10:25:21;13.60;99.90
39023;DHT22;25908;51.984;5.928;2022-11-15T10:27:58;13.50;99.90
39023;DHT22;25908;51.984;5.928;2022-11-15T10:30:31;13.40;99.90
39023;DHT22;25908;51.984;5.928;2022-11-15T10:32:57;13.50;99.90
39023;DHT22;25908;51.984;5.928;2022-11-15T10:35:28;13.40;99.90
39023;DHT22;25908;51.984;5.928;2022-11-15T10:38:08;13.40;99.90
39023;DHT22;25908;51.984;5.928;2022-11-15T10:40:35;13.40;99.90
39023;DHT22;25908;51.984;5.928;2022-11-15T10:45:36;13.40;99.90
39023;DHT22;25908;51.984;5.928;2022-11-15T10:50:38;13.50;99.90
39023;DHT22;25908;51.984;5.928;2022-11-15T10:53:18;13.50;99.90
39023;DHT22;25908;51.984;5.928;2022-11-15T10:55:50;13.50;99.90
39023;DHT22;25908;51.984;5.928;2022-11-15T10:58:35;13.50;99.90
39023;DHT22;25908;51.984;5.928;2022-11-15T11:01:27;13.60;99.90
39023;DHT22;25908;51.984;5.928;2022-11-15T11:04:04;13.50;99.90
39023;DHT22;25908;51.984;5.928;2022-11-15T11:06:31;13.60;99.90
39023;DHT22;25908;51.984;5.928;2022-11-15T11:09:18;13.50;99.90
39023;DHT22;25908;51.984;5.928;2022-11-15T11:11:51;13.50;99.90
39023;DHT22;25908;51.984;5.928;2022-11-15T11:14:30;13.50;99.90
39023;DHT22;25908;51.984;5.928;2022-11-15T11:20:08;13.30;99.90
39023;DHT22;25908;51.984;5.928;2022-11-15T11:40:30;13.40;99.90
39023;DHT22;25908;51.984;5.928;2022-11-15T11:43:21;13.40;99.90
39023;DHT22;25908;51.984;5.928;2022-11-15T11:46:26;13.40;99.30
39023;DHT22;25908;51.984;5.928;2022-11-15T11:49:15;13.30;98.40
39023;DHT22;25908;51.984;5.928;2022-11-15T11:57:07;13.20;98.10
39023;DHT22;25908;51.984;5.928;2022-11-15T11:59:50;13.20;98.40
39023;DHT22;25908;51.984;5.928;2022-11-15T12:05:03;13.10;98.80
39023;DHT22;25908;51.984;5.928;2022-11-15T12:07:33;13.10;97.90
39023;DHT22;25908;51.984;5.928;2022-11-15T12:10:15;13.10;97.40
39023;DHT22;25908;51.984;5.928;2022-11-15T12:12:58;13.00;97.30
39023;DHT22;25908;51.984;5.928;2022-11-15T12:15:29;13.00;97.40
39023;DHT22;25908;51.984;5.928;2022-11-15T12:17:56;13.00;97.30
39023;DHT22;25908;51.984;5.928;2022-11-15T12:20:26;13.00;97.00
39023;DHT22;25908;51.984;5.928;2022-11-15T12:23:13;13.00;96.80
39023;DHT22;25908;51.984;5.928;2022-11-15T12:26:07;13.00;97.40
39023;DHT22;25908;51.984;5.928;2022-11-15T12:33:46;13.00;98.10
39023;DHT22;25908;51.984;5.928;2022-11-15T12:38:59;13.00;97.40
39023;DHT22;25908;51.984;5.928;2022-11-15T12:41:29;13.00;97.10
39023;DHT22;25908;51.984;5.928;2022-11-15T12:43:56;13.00;96.90
39023;DHT22;25908;51.984;5.928;2022-11-15T12:49:00;13.00;96.40
39023;DHT22;25908;51.984;5.928;2022-11-15T13:13:12;13.10;95.80
39023;DHT22;25908;51.984;5.928;2022-11-15T13:16:01;13.10;95.80
39023;DHT22;25908;51.984;5.928;2022-11-15T13:18:38;13.10;95.50
39023;DHT22;25908;51.984;5.928;2022-11-15T13:21:22;13.10;95.30
39023;DHT22;25908;51.984;5.928;2022-11-15T13:24:13;13.10;95.10
39023;DHT22;25908;51.984;5.928;2022-11-15T13:26:41;13.10;95.10
39023;DHT22;25908;51.984;5.928;2022-11-15T13:29:15;13.10;95.30
39023;DHT22;25908;51.984;5.928;2022-11-15T13:31:43;13.20;95.40
39023;DHT22;25908;51.984;5.928;2022-11-15T13:34:30;13.20;94.70
39023;DHT22;25908;51.984;5.928;2022-11-15T13:37:01;13.20;94.10
39023;DHT22;25908;51.984;5.928;2022-11-15T13:39:32;13.20;94.10
39023;DHT22;25908;51.984;5.928;2022-11-15T13:41:59;13.10;94.30
39023;DHT22;25908;51.984;5.928;2022-11-15T13:44:27;13.20;94.20
39023;DHT22;25908;51.984;5.928;2022-11-15T13:47:12;13.20;94.50
39023;DHT22;25908;51.984;5.928;2022-11-15T13:49:41;13.10;94.30
39023;DHT22;25908;51.984;5.928;2022-11-15T13:52:10;13.20;94.70
39023;DHT22;25908;51.984;5.928;2022-11-15T13:54:50;13.10;94.70
39023;DHT22;25908;51.984;5.928;2022-11-15T13:57:30;13.10;94.60
39023;DHT22;25908;51.984;5.928;2022-11-15T14:00:01;13.10;94.70
39023;DHT22;25908;51.984;5.928;2022-11-15T14:02:33;13.10;95.00
39023;DHT22;25908;51.984;5.928;2022-11-15T14:05:19;13.10;94.90
39023;DHT22;25908;51.984;5.928;2022-11-15T14:08:12;13.10;95.00
39023;DHT22;25908;51.984;5.928;2022-11-15T14:10:39;13.10;95.20
39023;DHT22;25908;51.984;5.928;2022-11-15T14:13:11;13.20;95.50
39023;DHT22;25908;51.984;5.928;2022-11-15T14:15:51;13.10;95.30
39023;DHT22;25908;51.984;5.928;2022-11-15T14:21:11;13.10;95.40
39023;DHT22;25908;51.984;5.928;2022-11-15T14:23:36;13.10;95.30
39023;DHT22;25908;51.984;5.928;2022-11-15T14:26:02;13.00;94.70
39023;DHT22;25908;51.984;5.928;2022-11-15T14:28:31;13.00;95.00
39023;DHT22;25908;51.984;5.928;2022-11-15T14:30:59;13.00;95.20
39023;DHT22;25908;51.984;5.928;2022-11-15T14:33:30;13.10;95.20
39023;DHT22;25908;51.984;5.928;2022-11-15T14:36:02;13.00;95.00
39023;DHT22;25908;51.984;5.928;2022-11-15T14:38:28;13.00;95.20
39023;DHT22;25908;51.984;5.928;2022-11-15T14:40:54;13.00;95.10
39023;DHT22;25908;51.984;5.928;2022-11-15T14:43:21;13.00;95.20
39023;DHT22;25908;51.984;5.928;2022-11-15T14:45:47;13.00;95.10
39023;DHT22;25908;51.984;5.928;2022-11-15T14:48:13;13.00;95.10
39023;DHT22;25908;51.984;5.928;2022-11-15T14:50:38;13.00;95.20
39023;DHT22;25908;51.984;5.928;2022-11-15T14:53:04;13.00;95.30
39023;DHT22;25908;51.984;5.928;2022-11-15T14:55:35;12.90;95.40
39023;DHT22;25908;51.984;5.928;2022-11-15T14:58:04;12.90;95.40
39023;DHT22;25908;51.984;5.928;2022-11-15T15:00:32;13.00;95.40
39023;DHT22;25908;51.984;5.928;2022-11-15T15:02:58;13.00;95.30
39023;DHT22;25908;51.984;5.928;2022-11-15T15:05:33;12.90;95.20
39023;DHT22;25908;51.984;5.928;2022-11-15T15:07:59;12.90;95.30
39023;DHT22;25908;51.984;5.928;2022-11-15T15:10:31;13.00;95.30
39023;DHT22;25908;51.984;5.928;2022-11-15T15:12:57;12.90;95.30
39023;DHT22;25908;51.984;5.928;2022-11-15T15:15:32;12.90;95.30
39023;DHT22;25908;51.984;5.928;2022-11-15T15:17:58;13.00;94.90
39023;DHT22;25908;51.984;5.928;2022-11-15T15:20:24;12.90;94.60
39023;DHT22;25908;51.984;5.928;2022-11-15T15:22:49;13.00;94.50
39023;DHT22;25908;51.984;5.928;2022-11-15T15:25:23;13.00;94.50
39023;DHT22;25908;51.984;5.928;2022-11-15T15:27:52;13.00;94.30
39023;DHT22;25908;51.984;5.928;2022-11-15T15:30:18;13.00;94.40
39023;DHT22;25908;51.984;5.928;2022-11-15T15:32:44;13.00;94.20
39023;DHT22;25908;51.984;5.928;2022-11-15T15:35:14;13.00;94.10
39023;DHT22;25908;51.984;5.928;2022-11-15T15:37:41;13.00;94.20
39023;DHT22;25908;51.984;5.928;2022-11-15T15:42:41;13.00;94.20
39023;DHT22;25908;51.984;5.928;2022-11-15T15:45:07;13.00;94.20
39023;DHT22;25908;51.984;5.928;2022-11-15T15:47:33;13.00;94.20
39023;DHT22;25908;51.984;5.928;2022-11-15T15:49:59;13.00;94.10
39023;DHT22;25908;51.984;5.928;2022-11-15T15:52:24;13.00;94.50
39023;DHT22;25908;51.984;5.928;2022-11-15T15:54:50;13.10;94.50
39023;DHT22;25908;51.984;5.928;2022-11-15T15:57:15;13.10;94.60
39023;DHT22;25908;51.984;5.928;2022-11-15T15:59:41;13.10;94.70
39023;DHT22;25908;51.984;5.928;2022-11-15T16:02:12;13.10;94.60
39023;DHT22;25908;51.984;5.928;2022-11-15T16:04:39;13.10;94.80
39023;DHT22;25908;51.984;5.928;2022-11-15T16:07:04;13.10;94.80
39023;DHT22;25908;51.984;5.928;2022-11-15T16:09:30;13.10;94.90
39023;DHT22;25908;51.984;5.928;2022-11-15T16:12:14;13.10;95.00
39023;DHT22;25908;51.984;5.928;2022-11-15T16:14:42;13.10;95.10
39023;DHT22;25908;51.984;5.928;2022-11-15T16:17:18;13.10;95.30
39023;DHT22;25908;51.984;5.928;2022-11-15T16:19:44;13.10;95.50
39023;DHT22;25908;51.984;5.928;2022-11-15T16:22:10;13.10;95.60
39023;DHT22;25908;51.984;5.928;2022-11-15T16:24:35;13.10;95.60
39023;DHT22;25908;51.984;5.928;2022-11-15T16:27:01;13.10;95.70
39023;DHT22;25908;51.984;5.928;2022-11-15T16:29:27;13.10;95.80
39023;DHT22;25908;51.984;5.928;2022-11-15T16:31:53;13.10;95.90
39023;DHT22;25908;51.984;5.928;2022-11-15T16:34:19;13.10;96.00
39023;DHT22;25908;51.984;5.928;2022-11-15T16:36:44;13.20;96.10
39023;DHT22;25908;51.984;5.928;2022-11-15T16:39:11;13.20;96.20
39023;DHT22;25908;51.984;5.928;2022-11-15T16:41:39;13.20;96.20
39023;DHT22;25908;51.984;5.928;2022-11-15T16:44:05;13.20;96.30
39023;DHT22;25908;51.984;5.928;2022-11-15T16:46:30;13.20;96.40
39023;DHT22;25908;51.984;5.928;2022-11-15T16:48:56;13.20;96.50
39023;DHT22;25908;51.984;5.928;2022-11-15T16:51:22;13.20;96.60
39023;DHT22;25908;51.984;5.928;2022-11-15T16:53:48;13.20;96.60
39023;DHT22;25908;51.984;5.928;2022-11-15T16:58:52;13.20;96.80
39023;DHT22;25908;51.984;5.928;2022-11-15T17:01:25;13.20;96.70
39023;DHT22;25908;51.984;5.928;2022-11-15T17:03:51;13.20;96.60
39023;DHT22;25908;51.984;5.928;2022-11-15T17:06:17;13.20;96.70
39023;DHT22;25908;51.984;5.928;2022-11-15T17:08:43;13.20;96.70
39023;DHT22;25908;51.984;5.928;2022-11-15T17:11:10;13.20;96.80
39023;DHT22;25908;51.984;5.928;2022-11-15T17:13:38;13.20;96.90
39023;DHT22;25908;51.984;5.928;2022-11-15T17:16:09;13.20;97.00
39023;DHT22;25908;51.984;5.928;2022-11-15T17:18:35;13.20;97.10
39023;DHT22;25908;51.984;5.928;2022-11-15T17:23:31;13.20;97.10
39023;DHT22;25908;51.984;5.928;2022-11-15T17:26:01;13.20;97.10
39023;DHT22;25908;51.984;5.928;2022-11-15T17:28:29;13.30;97.20
39023;DHT22;25908;51.984;5.928;2022-11-15T17:30:54;13.30;97.30
39023;DHT22;25908;51.984;5.928;2022-11-15T17:33:20;13.20;97.40
39023;DHT22;25908;51.984;5.928;2022-11-15T17:35:45;13.30;97.50
39023;DHT22;25908;51.984;5.928;2022-11-15T17:38:11;13.20;97.60
39023;DHT22;25908;51.984;5.928;2022-11-15T17:40:36;13.30;97.70
39023;DHT22;25908;51.984;5.928;2022-11-15T17:43:04;13.30;97.70